Time;durP1;ratioP1;P1;durP2;ratioP2;P2;SDS_P1;SDS_P2;PMS_P1;PMS_P2;Temp;Humidity;BMP_temperature;BMP_pressure;BME280_temperature;BME280_humidity;BME280_pressure;Samples;Min_cycle;Max_cycle;Signal;HPM_P1;HPM_P2
2022/10/12 00:07:58;;;;;;;0.20;0.00;;;18.30;99.90;;;;;;21244410;28;20424;-72
2022/10/12 00:18:01;;;;;;;0.20;0.00;;;18.30;99.90;;;;;;21249942;27;21015;-72
2022/10/12 00:28:08;;;;;;;0.20;0.10;;;18.10;99.90;;;;;;21259394;27;20416;-73
2022/10/12 00:38:11;;;;;;;0.20;0.00;;;17.90;99.90;;;;;;21227969;28;20397;-73
2022/10/12 00:48:17;;;;;;;0.20;0.00;;;18.00;99.90;;;;;;21244414;28;20399;-73
2022/10/12 00:58:22;;;;;;;0.20;0.10;;;17.80;99.90;;;;;;21261412;28;20394;-73
2022/10/12 01:08:28;;;;;;;0.20;0.03;;;17.70;99.90;;;;;;21259596;28;20394;-73
2022/10/12 01:18:40;;;;;;;0.20;0.00;;;17.80;99.90;;;;;;21241151;28;20391;-72
2022/10/12 01:28:56;;;;;;;0.20;0.00;;;17.90;99.90;;;;;;21257221;28;20383;-73
2022/10/12 01:39:10;;;;;;;0.20;0.00;;;17.80;99.90;;;;;;21239093;28;20417;-73
2022/10/12 01:49:17;;;;;;;0.20;0.00;;;17.70;99.90;;;;;;21256394;28;20436;-72
2022/10/12 01:59:34;;;;;;;0.20;0.00;;;17.50;99.90;;;;;;21256315;28;20394;-72
2022/10/12 02:09:39;;;;;;;0.20;0.00;;;17.30;99.90;;;;;;21254403;28;20429;-72
2022/10/12 02:19:50;;;;;;;0.20;0.00;;;17.20;99.90;;;;;;21254335;28;20408;-71
2022/10/12 02:29:54;;;;;;;0.20;0.00;;;17.10;99.90;;;;;;21253520;28;20394;-72
2022/10/12 02:40:06;;;;;;;0.20;0.00;;;17.20;99.90;;;;;;21251288;28;20477;-72
2022/10/12 02:50:11;;;;;;;0.20;0.10;;;17.50;99.90;;;;;;21252092;28;20386;-72
2022/10/12 03:00:18;;;;;;;0.20;0.07;;;17.70;99.90;;;;;;21251016;28;20407;-72
2022/10/12 03:10:21;;;;;;;0.20;0.00;;;17.70;99.90;;;;;;21249586;28;20402;-72
2022/10/12 03:20:27;;;;;;;0.20;0.00;;;17.60;99.90;;;;;;21215128;28;20406;-72
2022/10/12 03:30:31;;;;;;;0.20;0.00;;;17.60;99.90;;;;;;21249206;28;20391;-72
2022/10/12 03:40:36;;;;;;;0.20;0.00;;;17.50;99.90;;;;;;21247201;28;20395;-72
2022/10/12 03:50:39;;;;;;;0.20;0.00;;;17.30;99.90;;;;;;21229504;28;20413;-72
2022/10/12 04:00:45;;;;;;;0.20;0.05;;;17.10;99.90;;;;;;21229666;28;20387;-72
2022/10/12 04:10:50;;;;;;;0.20;0.00;;;17.10;99.90;;;;;;21241678;28;20399;-73
2022/10/12 04:20:55;;;;;;;0.20;0.00;;;16.90;99.90;;;;;;21238059;28;20424;-71
2022/10/12 04:30:59;;;;;;;0.20;0.00;;;16.80;99.90;;;;;;21244145;28;20390;-72
2022/10/12 04:41:04;;;;;;;0.20;0.10;;;16.70;99.90;;;;;;21244805;28;20387;-72
2022/10/12 04:51:08;;;;;;;0.20;0.10;;;16.60;99.90;;;;;;21244465;28;20462;-72
2022/10/12 05:01:13;;;;;;;0.20;0.00;;;16.70;99.90;;;;;;21226786;28;20399;-73
2022/10/12 05:11:17;;;;;;;0.20;0.03;;;16.70;99.90;;;;;;21258986;28;20404;-71
2022/10/12 05:21:22;;;;;;;0.20;0.10;;;16.90;99.90;;;;;;21258598;28;20399;-72
2022/10/12 05:31:26;;;;;;;0.20;0.10;;;17.10;99.90;;;;;;21239962;28;20424;-73
2022/10/12 05:41:31;;;;;;;0.20;0.10;;;17.30;99.90;;;;;;21237648;28;20478;-70
2022/10/12 05:51:35;;;;;;;0.20;0.10;;;17.60;99.90;;;;;;21254990;28;20413;-71
2022/10/12 06:01:41;;;;;;;0.20;0.03;;;17.50;99.90;;;;;;21254874;28;20402;-71
2022/10/12 06:11:46;;;;;;;0.20;0.07;;;17.30;99.90;;;;;;21252416;28;20417;-72
2022/10/12 06:21:51;;;;;;;0.20;0.10;;;17.20;99.90;;;;;;21252698;28;20402;-71
2022/10/12 06:31:55;;;;;;;0.20;0.10;;;17.30;99.90;;;;;;21234258;28;20421;-72
2022/10/12 06:42:00;;;;;;;0.20;0.00;;;17.50;99.90;;;;;;21250227;28;20447;-70
2022/10/12 06:52:04;;;;;;;0.20;0.10;;;17.90;99.90;;;;;;21248596;28;20462;-72
2022/10/12 07:02:11;;;;;;;0.20;0.00;;;18.20;99.90;;;;;;21243938;28;20420;-72
2022/10/12 07:12:15;;;;;;;0.20;0.00;;;18.30;99.90;;;;;;21244061;28;20395;-73
2022/10/12 07:22:20;;;;;;;0.20;0.10;;;18.70;99.90;;;;;;21244089;28;20482;-72
2022/10/12 07:32:23;;;;;;;0.20;0.07;;;19.10;99.90;;;;;;21202952;28;20429;-72
2022/10/12 07:42:28;;;;;;;0.20;0.00;;;19.60;99.90;;;;;;21243121;28;20456;-73
2022/10/12 07:52:33;;;;;;;0.20;0.00;;;19.80;99.90;;;;;;21244879;28;20448;-73
2022/10/12 08:02:38;;;;;;;0.20;0.00;;;19.70;99.90;;;;;;21245024;28;20387;-73
2022/10/12 08:12:42;;;;;;;0.20;0.00;;;19.10;99.90;;;;;;21243685;28;20434;-74
2022/10/12 08:22:52;;;;;;;0.20;0.00;;;19.30;99.90;;;;;;21242893;28;20394;-73
2022/10/12 08:32:55;;;;;;;0.20;0.10;;;19.70;99.90;;;;;;21244482;28;20387;-73
2022/10/12 08:43:11;;;;;;;0.20;0.00;;;20.00;99.90;;;;;;21166932;28;20396;-71
2022/10/12 08:53:21;;;;;;;0.20;0.00;;;19.80;99.90;;;;;;21147793;28;20377;-73
2022/10/12 09:03:39;;;;;;;0.20;0.00;;;20.00;99.90;;;;;;21151298;28;20431;-73
2022/10/12 09:13:51;;;;;;;0.20;0.00;;;20.70;99.90;;;;;;21149789;28;20434;-71
2022/10/12 09:23:57;;;;;;;0.20;0.00;;;21.20;99.90;;;;;;21150594;28;20400;-73
2022/10/12 09:34:08;;;;;;;0.20;0.08;;;21.80;99.90;;;;;;21167337;28;20397;-72
2022/10/12 09:44:21;;;;;;;0.20;0.00;;;22.20;99.90;;;;;;21149745;28;20424;-72
2022/10/12 09:54:27;;;;;;;0.20;0.00;;;22.60;99.90;;;;;;21164762;28;20389;-72
2022/10/12 10:04:32;;;;;;;0.20;0.10;;;23.10;99.90;;;;;;21145731;28;20408;-71
2022/10/12 10:14:36;;;;;;;0.20;0.00;;;23.50;99.90;;;;;;21146024;28;20438;-70
2022/10/12 10:24:42;;;;;;;0.20;0.10;;;24.10;99.90;;;;;;21128922;28;20412;-70
2022/10/12 10:34:45;;;;;;;0.20;0.00;;;24.30;99.90;;;;;;21244271;28;20390;-71
2022/10/12 10:44:52;;;;;;;0.20;0.00;;;25.10;99.90;;;;;;21226381;28;20394;-70
2022/10/12 10:55:16;;;;;;;0.20;0.03;;;25.50;99.90;;;;;;21244778;28;20440;-70
2022/10/12 11:05:27;;;;;;;0.20;0.00;;;25.80;99.90;;;;;;21245273;28;20395;-70
2022/10/12 11:15:37;;;;;;;0.20;0.00;;;26.20;99.90;;;;;;21242442;28;21154;-69
2022/10/12 11:25:51;;;;;;;0.20;0.00;;;26.40;99.90;;;;;;21242617;28;20406;-69
2022/10/12 11:35:57;;;;;;;0.20;0.00;;;26.90;99.90;;;;;;21241546;28;20390;-70
2022/10/12 11:46:06;;;;;;;0.20;0.00;;;27.50;99.90;;;;;;21241192;27;20984;-71
2022/10/12 11:56:18;;;;;;;0.20;0.00;;;27.40;99.90;;;;;;21223937;28;20391;-70
2022/10/12 12:06:47;;;;;;;0.20;0.00;;;27.30;99.90;;;;;;21239226;28;20428;-70
2022/10/12 12:17:09;;;;;;;0.20;0.00;;;27.30;99.90;;;;;;21217606;28;20386;-70
2022/10/12 12:27:23;;;;;;;0.20;0.00;;;27.40;99.90;;;;;;21239758;28;20395;-70
2022/10/12 12:37:32;;;;;;;0.20;0.00;;;27.90;99.90;;;;;;21239258;28;20395;-70
2022/10/12 12:47:40;;;;;;;0.20;0.00;;;28.30;99.90;;;;;;21257351;28;20398;-71
2022/10/12 12:58:24;;;;;;;0.20;0.03;;;27.90;99.90;;;;;;21237726;27;20389;-70
2022/10/12 13:08:42;;;;;;;0.20;0.00;;;28.20;99.90;;;;;;21180493;28;20410;-70
2022/10/12 13:18:51;;;;;;;0.20;0.00;;;28.40;99.90;;;;;;21255883;28;20383;-74
2022/10/12 13:28:59;;;;;;;0.20;0.00;;;28.80;99.90;;;;;;21235401;28;20475;-69
2022/10/12 13:39:15;;;;;;;0.20;0.00;;;29.10;99.90;;;;;;21236194;28;20387;-70
2022/10/12 13:49:22;;;;;;;0.20;0.00;;;28.60;99.90;;;;;;21254230;28;20394;-70
2022/10/12 13:59:29;;;;;;;0.20;0.00;;;27.20;99.90;;;;;;21251316;28;20378;-69
2022/10/12 14:09:41;;;;;;;0.20;0.00;;;28.00;99.90;;;;;;21230451;28;20398;-70
2022/10/12 14:19:47;;;;;;;0.20;0.00;;;29.70;99.90;;;;;;21248344;28;20442;-69
2022/10/12 14:29:56;;;;;;;0.20;0.00;;;28.70;99.90;;;;;;21230352;28;20433;-69
2022/10/12 14:40:28;;;;;;;0.20;0.00;;;28.50;99.90;;;;;;21245210;28;20405;-70
2022/10/12 14:50:33;;;;;;;0.20;0.00;;;29.10;99.90;;;;;;21225632;28;20412;-69
2022/10/12 15:00:41;;;;;;;0.20;0.00;;;26.10;99.90;;;;;;21160502;28;20397;-70
2022/10/12 15:10:50;;;;;;;0.20;0.10;;;28.50;99.90;;;;;;21157767;28;20422;-69
2022/10/12 15:20:56;;;;;;;0.20;0.00;;;27.90;99.90;;;;;;21157631;28;20426;-69
2022/10/12 15:31:02;;;;;;;0.20;0.00;;;27.20;99.90;;;;;;21139080;28;20428;-70
2022/10/12 15:41:22;;;;;;;0.20;0.00;;;26.10;99.90;;;;;;21209902;28;20405;-69
2022/10/12 15:51:28;;;;;;;0.20;0.00;;;25.30;99.90;;;;;;21166228;28;20462;-71
2022/10/12 16:01:33;;;;;;;0.20;0.00;;;25.00;99.90;;;;;;21158224;28;20393;-69
2022/10/12 16:11:38;;;;;;;0.20;0.00;;;24.20;99.90;;;;;;21156248;28;20407;-71
2022/10/12 16:21:42;;;;;;;0.20;0.00;;;23.80;99.90;;;;;;21158672;28;20402;-70
2022/10/12 16:31:47;;;;;;;0.20;0.00;;;23.60;99.90;;;;;;21140356;28;20388;-69
2022/10/12 16:41:52;;;;;;;0.20;0.00;;;23.30;99.90;;;;;;21206651;28;20390;-69
2022/10/12 16:51:57;;;;;;;0.20;0.00;;;23.30;99.90;;;;;;21241351;28;20413;-70
2022/10/12 17:02:00;;;;;;;0.20;0.00;;;22.90;99.90;;;;;;21228845;28;20424;-70
2022/10/12 17:12:06;;;;;;;0.20;0.00;;;22.90;99.90;;;;;;21238539;28;20432;-70
2022/10/12 17:22:13;;;;;;;0.20;0.00;;;22.50;99.90;;;;;;21255549;28;20393;-70
2022/10/12 17:32:18;;;;;;;0.20;0.00;;;22.40;99.90;;;;;;21256176;28;20406;-71
2022/10/12 17:42:22;;;;;;;0.20;0.00;;;22.30;99.90;;;;;;21245744;28;20375;-70
2022/10/12 17:52:27;;;;;;;0.20;0.00;;;22.20;99.90;;;;;;21244836;28;20452;-72
2022/10/12 18:02:31;;;;;;;0.20;0.00;;;22.00;99.90;;;;;;21251411;28;20421;-70
2022/10/12 18:12:36;;;;;;;0.20;0.00;;;21.60;99.90;;;;;;21233080;27;20387;-71
2022/10/12 18:22:40;;;;;;;0.20;0.00;;;21.30;99.90;;;;;;21250724;28;20402;-71
2022/10/12 18:32:45;;;;;;;0.20;0.00;;;21.00;99.90;;;;;;21219896;28;20392;-70
2022/10/12 18:42:49;;;;;;;0.20;0.00;;;20.80;99.90;;;;;;21202807;28;20390;-71
2022/10/12 18:52:55;;;;;;;0.20;0.00;;;20.30;99.90;;;;;;21224578;28;20398;-70
2022/10/12 19:02:58;;;;;;;0.20;0.00;;;20.00;99.90;;;;;;21242512;28;20444;-71
2022/10/12 19:13:04;;;;;;;0.20;0.00;;;19.80;99.90;;;;;;21243563;28;20387;-71
2022/10/12 19:23:08;;;;;;;0.20;0.00;;;19.70;99.90;;;;;;21227809;28;20390;-70
2022/10/12 19:33:13;;;;;;;0.20;0.00;;;19.50;99.90;;;;;;21245595;28;20772;-71
2022/10/12 19:43:16;;;;;;;0.20;0.00;;;19.40;99.90;;;;;;21242394;28;20410;-71
2022/10/12 19:53:21;;;;;;;0.20;0.00;;;19.30;99.90;;;;;;21242467;28;20383;-71
2022/10/12 20:03:25;;;;;;;0.20;0.00;;;19.40;99.90;;;;;;21241932;28;20390;-71
2022/10/12 20:13:31;;;;;;;0.20;0.00;;;19.50;99.90;;;;;;21241957;28;20457;-72
2022/10/12 20:23:35;;;;;;;0.20;0.00;;;19.10;99.90;;;;;;21242586;28;20402;-71
2022/10/12 20:33:41;;;;;;;0.20;0.00;;;18.70;99.90;;;;;;21245295;28;20386;-72
2022/10/12 20:43:45;;;;;;;0.20;0.10;;;18.60;99.90;;;;;;21254590;28;20398;-70
2022/10/12 20:53:51;;;;;;;0.20;0.00;;;18.90;99.90;;;;;;21254145;28;20452;-70
2022/10/12 21:03:55;;;;;;;0.20;0.00;;;18.70;99.90;;;;;;21236170;28;20402;-69
2022/10/12 21:14:00;;;;;;;0.20;0.00;;;18.80;99.90;;;;;;21254689;28;20386;-70
2022/10/12 21:24:04;;;;;;;0.20;0.00;;;18.80;99.90;;;;;;21237261;28;20468;-72
2022/10/12 21:34:10;;;;;;;0.20;0.00;;;18.60;99.90;;;;;;21254350;28;20387;-71
2022/10/12 21:44:14;;;;;;;0.20;0.00;;;18.60;99.90;;;;;;21252702;28;20407;-71
2022/10/12 21:54:19;;;;;;;0.20;0.00;;;19.00;99.90;;;;;;21232127;28;20413;-70
2022/10/12 22:04:23;;;;;;;0.20;0.00;;;18.90;99.90;;;;;;21233665;28;20446;-70
2022/10/12 22:14:28;;;;;;;0.20;0.00;;;19.10;99.90;;;;;;21250518;28;20398;-70
2022/10/12 22:24:32;;;;;;;0.20;0.00;;;19.40;99.90;;;;;;21250268;28;20399;-69
2022/10/12 22:34:37;;;;;;;0.20;0.00;;;19.60;99.90;;;;;;21249577;28;20466;-71
2022/10/12 22:44:41;;;;;;;0.20;0.00;;;19.60;99.90;;;;;;21246864;28;20416;-70
2022/10/12 22:54:46;;;;;;;0.20;0.10;;;19.70;99.90;;;;;;21246265;28;20399;-71
2022/10/12 23:04:50;;;;;;;0.20;0.00;;;20.00;99.90;;;;;;21247870;28;20414;-71
2022/10/12 23:14:55;;;;;;;0.20;0.00;;;19.70;99.90;;;;;;21249732;28;20408;-71
2022/10/12 23:24:59;;;;;;;0.20;0.00;;;19.30;99.90;;;;;;21231099;28;20394;-71
2022/10/12 23:35:04;;;;;;;0.20;0.00;;;19.40;99.90;;;;;;21248233;28;20476;-71
2022/10/12 23:45:09;;;;;;;0.20;0.00;;;19.20;99.90;;;;;;21247785;28;20394;-71
2022/10/12 23:55:14;;;;;;;0.20;0.00;;;18.90;99.90;;;;;;21247074;28;20424;-70
